sensor_id;sensor_type;location;lat;lon;timestamp;P1;durP1;ratioP1;P2;durP2;ratioP2
72920;SDS011;61064;51.654;5.476;2024-03-23T00:55:11;12.60;;;2.72;;
72920;SDS011;61064;51.654;5.476;2024-03-23T00:57:37;12.73;;;2.67;;
72920;SDS011;61064;51.654;5.476;2024-03-23T01:00:03;10.67;;;2.33;;
72920;SDS011;61064;51.654;5.476;2024-03-23T01:02:31;8.70;;;2.00;;
72920;SDS011;61064;51.654;5.476;2024-03-23T01:04:57;13.20;;;2.50;;
72920;SDS011;61064;51.654;5.476;2024-03-23T01:07:22;13.77;;;2.60;;
72920;SDS011;61064;51.654;5.476;2024-03-23T01:09:47;14.93;;;2.60;;
72920;SDS011;61064;51.654;5.476;2024-03-23T01:12:13;11.97;;;2.60;;
72920;SDS011;61064;51.654;5.476;2024-03-23T01:14:38;15.77;;;3.00;;
72920;SDS011;61064;51.654;5.476;2024-03-23T01:17:03;12.97;;;2.60;;
72920;SDS011;61064;51.654;5.476;2024-03-23T01:19:32;12.38;;;2.67;;
72920;SDS011;61064;51.654;5.476;2024-03-23T01:21:57;14.63;;;2.90;;
72920;SDS011;61064;51.654;5.476;2024-03-23T01:24:22;14.47;;;3.13;;
72920;SDS011;61064;51.654;5.476;2024-03-23T01:26:48;10.40;;;3.03;;
72920;SDS011;61064;51.654;5.476;2024-03-23T01:29:13;12.83;;;2.87;;
72920;SDS011;61064;51.654;5.476;2024-03-23T01:31:38;13.33;;;2.93;;
72920;SDS011;61064;51.654;5.476;2024-03-23T01:34:04;14.23;;;2.87;;
72920;SDS011;61064;51.654;5.476;2024-03-23T01:36:32;13.05;;;2.55;;
72920;SDS011;61064;51.654;5.476;2024-03-23T01:38:58;12.33;;;3.07;;
72920;SDS011;61064;51.654;5.476;2024-03-23T01:41:24;14.15;;;2.85;;
72920;SDS011;61064;51.654;5.476;2024-03-23T01:43:50;12.30;;;2.83;;
72920;SDS011;61064;51.654;5.476;2024-03-23T01:46:15;15.23;;;3.00;;
72920;SDS011;61064;51.654;5.476;2024-03-23T01:48:42;13.33;;;3.47;;
72920;SDS011;61064;51.654;5.476;2024-03-23T01:51:07;14.77;;;3.00;;
72920;SDS011;61064;51.654;5.476;2024-03-23T01:53:33;19.03;;;3.53;;
72920;SDS011;61064;51.654;5.476;2024-03-23T01:55:58;12.75;;;3.22;;
72920;SDS011;61064;51.654;5.476;2024-03-23T01:58:24;13.67;;;3.03;;
72920;SDS011;61064;51.654;5.476;2024-03-23T02:00:49;10.70;;;3.47;;
72920;SDS011;61064;51.654;5.476;2024-03-23T02:03:24;12.23;;;3.60;;
72920;SDS011;61064;51.654;5.476;2024-03-23T02:05:50;13.80;;;3.83;;
72920;SDS011;61064;51.654;5.476;2024-03-23T02:08:17;13.45;;;3.25;;
72920;SDS011;61064;51.654;5.476;2024-03-23T02:10:43;12.75;;;3.17;;
72920;SDS011;61064;51.654;5.476;2024-03-23T02:13:09;14.20;;;3.10;;
72920;SDS011;61064;51.654;5.476;2024-03-23T02:15:34;18.70;;;3.20;;
72920;SDS011;61064;51.654;5.476;2024-03-23T02:18:00;18.52;;;3.17;;
72920;SDS011;61064;51.654;5.476;2024-03-23T02:20:25;14.30;;;2.90;;
72920;SDS011;61064;51.654;5.476;2024-03-23T02:22:51;13.60;;;3.00;;
72920;SDS011;61064;51.654;5.476;2024-03-23T02:25:18;16.20;;;3.28;;
72920;SDS011;61064;51.654;5.476;2024-03-23T02:27:43;14.90;;;3.47;;
72920;SDS011;61064;51.654;5.476;2024-03-23T02:30:09;16.03;;;3.33;;
72920;SDS011;61064;51.654;5.476;2024-03-23T02:32:36;15.73;;;3.15;;
72920;SDS011;61064;51.654;5.476;2024-03-23T02:35:02;15.87;;;3.70;;
72920;SDS011;61064;51.654;5.476;2024-03-23T02:37:27;14.20;;;3.20;;
72920;SDS011;61064;51.654;5.476;2024-03-23T02:39:53;13.87;;;3.20;;
72920;SDS011;61064;51.654;5.476;2024-03-23T02:42:18;15.73;;;3.43;;
72920;SDS011;61064;51.654;5.476;2024-03-23T02:44:44;15.02;;;3.40;;
72920;SDS011;61064;51.654;5.476;2024-03-23T02:47:09;15.93;;;3.55;;
72920;SDS011;61064;51.654;5.476;2024-03-23T02:49:35;13.87;;;3.43;;
72920;SDS011;61064;51.654;5.476;2024-03-23T02:52:00;18.33;;;3.90;;
72920;SDS011;61064;51.654;5.476;2024-03-23T02:54:26;13.73;;;3.33;;
72920;SDS011;61064;51.654;5.476;2024-03-23T02:56:51;12.47;;;3.33;;
72920;SDS011;61064;51.654;5.476;2024-03-23T02:59:16;12.07;;;3.53;;
72920;SDS011;61064;51.654;5.476;2024-03-23T03:01:42;14.63;;;3.17;;
72920;SDS011;61064;51.654;5.476;2024-03-23T03:04:07;13.23;;;2.97;;
72920;SDS011;61064;51.654;5.476;2024-03-23T03:06:33;16.50;;;3.50;;
72920;SDS011;61064;51.654;5.476;2024-03-23T03:08:58;11.07;;;2.80;;
72920;SDS011;61064;51.654;5.476;2024-03-23T03:11:24;14.35;;;3.10;;
72920;SDS011;61064;51.654;5.476;2024-03-23T03:13:49;15.27;;;3.07;;
72920;SDS011;61064;51.654;5.476;2024-03-23T03:16:15;13.40;;;2.60;;
72920;SDS011;61064;51.654;5.476;2024-03-23T03:18:40;18.30;;;3.03;;
72920;SDS011;61064;51.654;5.476;2024-03-23T03:21:06;12.02;;;2.58;;
72920;SDS011;61064;51.654;5.476;2024-03-23T03:23:36;13.80;;;2.65;;
72920;SDS011;61064;51.654;5.476;2024-03-23T03:26:02;14.13;;;3.03;;
72920;SDS011;61064;51.654;5.476;2024-03-23T03:28:28;16.30;;;3.15;;
72920;SDS011;61064;51.654;5.476;2024-03-23T03:30:56;11.87;;;2.27;;
72920;SDS011;61064;51.654;5.476;2024-03-23T03:33:22;8.85;;;2.20;;
72920;SDS011;61064;51.654;5.476;2024-03-23T03:35:47;13.90;;;2.53;;
72920;SDS011;61064;51.654;5.476;2024-03-23T03:38:12;14.98;;;2.40;;
72920;SDS011;61064;51.654;5.476;2024-03-23T03:40:38;18.13;;;2.30;;
72920;SDS011;61064;51.654;5.476;2024-03-23T03:43:03;11.53;;;2.50;;
72920;SDS011;61064;51.654;5.476;2024-03-23T03:45:29;11.70;;;2.20;;
72920;SDS011;61064;51.654;5.476;2024-03-23T03:47:54;11.83;;;2.30;;
72920;SDS011;61064;51.654;5.476;2024-03-23T03:50:21;14.48;;;2.45;;
72920;SDS011;61064;51.654;5.476;2024-03-23T03:52:47;10.40;;;2.30;;
72920;SDS011;61064;51.654;5.476;2024-03-23T03:55:13;12.03;;;1.93;;
72920;SDS011;61064;51.654;5.476;2024-03-23T03:57:39;10.63;;;1.90;;
72920;SDS011;61064;51.654;5.476;2024-03-23T04:00:05;11.10;;;1.80;;
72920;SDS011;61064;51.654;5.476;2024-03-23T04:02:31;11.73;;;2.00;;
72920;SDS011;61064;51.654;5.476;2024-03-23T04:04:56;13.97;;;2.13;;
72920;SDS011;61064;51.654;5.476;2024-03-23T04:07:22;14.30;;;2.08;;
72920;SDS011;61064;51.654;5.476;2024-03-23T04:09:48;12.80;;;1.80;;
72920;SDS011;61064;51.654;5.476;2024-03-23T04:12:14;10.43;;;1.95;;
72920;SDS011;61064;51.654;5.476;2024-03-23T04:14:40;9.87;;;1.87;;
72920;SDS011;61064;51.654;5.476;2024-03-23T04:17:08;12.30;;;2.10;;
72920;SDS011;61064;51.654;5.476;2024-03-23T04:19:34;10.15;;;2.17;;
72920;SDS011;61064;51.654;5.476;2024-03-23T04:21:59;9.97;;;1.70;;
72920;SDS011;61064;51.654;5.476;2024-03-23T04:24:24;11.10;;;1.93;;
72920;SDS011;61064;51.654;5.476;2024-03-23T04:26:51;12.40;;;2.13;;
72920;SDS011;61064;51.654;5.476;2024-03-23T04:29:17;12.43;;;2.00;;
72920;SDS011;61064;51.654;5.476;2024-03-23T04:31:43;13.95;;;2.00;;
72920;SDS011;61064;51.654;5.476;2024-03-23T04:34:10;10.43;;;1.83;;
72920;SDS011;61064;51.654;5.476;2024-03-23T04:36:36;12.20;;;1.90;;
72920;SDS011;61064;51.654;5.476;2024-03-23T04:39:02;12.23;;;2.13;;
72920;SDS011;61064;51.654;5.476;2024-03-23T04:41:27;14.48;;;2.13;;
72920;SDS011;61064;51.654;5.476;2024-03-23T04:43:53;14.73;;;2.30;;
72920;SDS011;61064;51.654;5.476;2024-03-23T04:46:21;11.30;;;2.17;;
72920;SDS011;61064;51.654;5.476;2024-03-23T04:48:47;16.90;;;2.60;;
72920;SDS011;61064;51.654;5.476;2024-03-23T04:51:22;12.77;;;2.10;;
72920;SDS011;61064;51.654;5.476;2024-03-23T04:53:48;13.70;;;2.23;;
72920;SDS011;61064;51.654;5.476;2024-03-23T04:56:16;8.73;;;1.90;;
72920;SDS011;61064;51.654;5.476;2024-03-23T04:58:42;14.52;;;2.20;;
72920;SDS011;61064;51.654;5.476;2024-03-23T05:01:08;13.50;;;2.50;;
72920;SDS011;61064;51.654;5.476;2024-03-23T05:03:34;11.07;;;2.10;;
72920;SDS011;61064;51.654;5.476;2024-03-23T05:05:59;15.50;;;2.23;;
72920;SDS011;61064;51.654;5.476;2024-03-23T05:08:25;11.48;;;2.22;;
72920;SDS011;61064;51.654;5.476;2024-03-23T05:10:50;15.17;;;2.50;;
72920;SDS011;61064;51.654;5.476;2024-03-23T05:13:16;13.10;;;2.40;;
72920;SDS011;61064;51.654;5.476;2024-03-23T05:15:41;14.27;;;2.58;;
72920;SDS011;61064;51.654;5.476;2024-03-23T05:18:07;13.20;;;2.47;;
72920;SDS011;61064;51.654;5.476;2024-03-23T05:20:33;13.50;;;2.40;;
72920;SDS011;61064;51.654;5.476;2024-03-23T05:22:58;14.93;;;2.65;;
72920;SDS011;61064;51.654;5.476;2024-03-23T05:25:24;10.00;;;2.27;;
72920;SDS011;61064;51.654;5.476;2024-03-23T05:27:49;11.70;;;2.20;;
72920;SDS011;61064;51.654;5.476;2024-03-23T05:30:15;12.82;;;2.40;;
72920;SDS011;61064;51.654;5.476;2024-03-23T05:32:40;14.43;;;2.30;;
72920;SDS011;61064;51.654;5.476;2024-03-23T05:35:10;13.45;;;2.40;;
72920;SDS011;61064;51.654;5.476;2024-03-23T05:37:36;12.02;;;2.15;;
72920;SDS011;61064;51.654;5.476;2024-03-23T05:40:02;12.43;;;2.50;;
72920;SDS011;61064;51.654;5.476;2024-03-23T05:42:28;11.20;;;2.28;;
72920;SDS011;61064;51.654;5.476;2024-03-23T05:44:54;13.43;;;2.40;;
72920;SDS011;61064;51.654;5.476;2024-03-23T05:47:19;11.07;;;2.73;;
72920;SDS011;61064;51.654;5.476;2024-03-23T05:49:48;14.50;;;2.90;;
72920;SDS011;61064;51.654;5.476;2024-03-23T05:52:13;16.43;;;2.97;;
72920;SDS011;61064;51.654;5.476;2024-03-23T05:54:38;12.70;;;2.55;;
72920;SDS011;61064;51.654;5.476;2024-03-23T05:57:04;14.33;;;2.73;;
72920;SDS011;61064;51.654;5.476;2024-03-23T05:59:32;13.52;;;2.97;;
72920;SDS011;61064;51.654;5.476;2024-03-23T06:01:57;16.10;;;3.20;;
72920;SDS011;61064;51.654;5.476;2024-03-23T06:04:23;15.90;;;3.33;;
72920;SDS011;61064;51.654;5.476;2024-03-23T06:06:48;13.47;;;3.10;;
72920;SDS011;61064;51.654;5.476;2024-03-23T06:09:13;13.83;;;3.40;;
72920;SDS011;61064;51.654;5.476;2024-03-23T06:11:39;14.53;;;3.70;;
72920;SDS011;61064;51.654;5.476;2024-03-23T06:14:04;14.27;;;3.35;;
72920;SDS011;61064;51.654;5.476;2024-03-23T06:16:30;15.57;;;3.23;;
72920;SDS011;61064;51.654;5.476;2024-03-23T06:18:55;18.73;;;3.80;;
72920;SDS011;61064;51.654;5.476;2024-03-23T06:21:23;14.83;;;3.07;;
72920;SDS011;61064;51.654;5.476;2024-03-23T06:23:51;16.67;;;3.10;;
72920;SDS011;61064;51.654;5.476;2024-03-23T06:26:18;12.73;;;3.35;;
72920;SDS011;61064;51.654;5.476;2024-03-23T06:28:44;15.13;;;3.47;;
72920;SDS011;61064;51.654;5.476;2024-03-23T06:31:12;17.35;;;4.18;;
72920;SDS011;61064;51.654;5.476;2024-03-23T06:33:38;15.27;;;3.00;;
72920;SDS011;61064;51.654;5.476;2024-03-23T06:36:04;16.20;;;3.45;;
72920;SDS011;61064;51.654;5.476;2024-03-23T06:38:30;13.38;;;3.47;;
72920;SDS011;61064;51.654;5.476;2024-03-23T06:40:56;17.17;;;3.77;;
72920;SDS011;61064;51.654;5.476;2024-03-23T06:43:21;14.67;;;3.20;;
72920;SDS011;61064;51.654;5.476;2024-03-23T06:45:53;13.95;;;3.42;;
72920;SDS011;61064;51.654;5.476;2024-03-23T06:48:19;14.68;;;2.83;;
72920;SDS011;61064;51.654;5.476;2024-03-23T06:50:45;15.77;;;3.33;;
72920;SDS011;61064;51.654;5.476;2024-03-23T06:53:11;16.75;;;3.10;;
72920;SDS011;61064;51.654;5.476;2024-03-23T06:55:37;20.83;;;3.00;;
72920;SDS011;61064;51.654;5.476;2024-03-23T06:58:02;16.97;;;3.17;;
72920;SDS011;61064;51.654;5.476;2024-03-23T07:00:29;15.80;;;2.28;;
72920;SDS011;61064;51.654;5.476;2024-03-23T07:02:54;12.83;;;2.10;;
72920;SDS011;61064;51.654;5.476;2024-03-23T07:05:20;13.57;;;2.70;;
72920;SDS011;61064;51.654;5.476;2024-03-23T07:07:45;13.50;;;2.20;;
72920;SDS011;61064;51.654;5.476;2024-03-23T07:10:10;15.48;;;2.17;;
72920;SDS011;61064;51.654;5.476;2024-03-23T07:12:36;13.63;;;2.63;;
72920;SDS011;61064;51.654;5.476;2024-03-23T07:15:02;14.80;;;2.63;;
72920;SDS011;61064;51.654;5.476;2024-03-23T07:17:27;13.05;;;1.88;;
72920;SDS011;61064;51.654;5.476;2024-03-23T07:19:53;10.20;;;1.70;;
72920;SDS011;61064;51.654;5.476;2024-03-23T07:22:18;10.97;;;1.90;;
72920;SDS011;61064;51.654;5.476;2024-03-23T07:24:43;14.13;;;2.10;;
72920;SDS011;61064;51.654;5.476;2024-03-23T07:27:09;13.93;;;1.98;;
72920;SDS011;61064;51.654;5.476;2024-03-23T07:29:35;10.90;;;2.20;;
72920;SDS011;61064;51.654;5.476;2024-03-23T07:32:01;9.23;;;1.67;;
72920;SDS011;61064;51.654;5.476;2024-03-23T07:34:27;12.20;;;2.10;;
72920;SDS011;61064;51.654;5.476;2024-03-23T07:36:52;12.50;;;1.80;;
72920;SDS011;61064;51.654;5.476;2024-03-23T07:39:17;11.83;;;1.70;;
72920;SDS011;61064;51.654;5.476;2024-03-23T07:41:46;12.33;;;1.83;;
72920;SDS011;61064;51.654;5.476;2024-03-23T07:44:11;10.82;;;1.70;;
72920;SDS011;61064;51.654;5.476;2024-03-23T07:46:37;13.27;;;1.93;;
72920;SDS011;61064;51.654;5.476;2024-03-23T07:49:04;11.63;;;1.90;;
72920;SDS011;61064;51.654;5.476;2024-03-23T07:51:29;10.77;;;1.70;;
72920;SDS011;61064;51.654;5.476;2024-03-23T07:53:55;14.20;;;1.70;;
72920;SDS011;61064;51.654;5.476;2024-03-23T07:56:20;10.13;;;1.53;;
72920;SDS011;61064;51.654;5.476;2024-03-23T07:58:46;13.77;;;2.10;;
72920;SDS011;61064;51.654;5.476;2024-03-23T08:01:13;10.23;;;1.90;;
72920;SDS011;61064;51.654;5.476;2024-03-23T08:03:40;11.35;;;1.77;;
72920;SDS011;61064;51.654;5.476;2024-03-23T08:08:35;12.43;;;1.70;;
72920;SDS011;61064;51.654;5.476;2024-03-23T08:11:00;15.50;;;1.80;;
72920;SDS011;61064;51.654;5.476;2024-03-23T08:13:26;10.60;;;1.53;;
72920;SDS011;61064;51.654;5.476;2024-03-23T08:15:51;14.75;;;1.60;;
72920;SDS011;61064;51.654;5.476;2024-03-23T08:18:17;12.57;;;1.33;;
72920;SDS011;61064;51.654;5.476;2024-03-23T08:20:42;12.17;;;1.70;;
72920;SDS011;61064;51.654;5.476;2024-03-23T08:23:07;10.57;;;1.60;;
72920;SDS011;61064;51.654;5.476;2024-03-23T08:25:33;12.07;;;1.50;;
72920;SDS011;61064;51.654;5.476;2024-03-23T08:27:59;12.88;;;1.23;;
72920;SDS011;61064;51.654;5.476;2024-03-23T08:30:25;8.27;;;1.40;;
72920;SDS011;61064;51.654;5.476;2024-03-23T08:32:51;11.43;;;1.52;;
72920;SDS011;61064;51.654;5.476;2024-03-23T08:35:16;11.20;;;1.20;;
72920;SDS011;61064;51.654;5.476;2024-03-23T08:37:41;7.67;;;0.97;;
72920;SDS011;61064;51.654;5.476;2024-03-23T08:40:07;6.22;;;0.60;;
72920;SDS011;61064;51.654;5.476;2024-03-23T08:42:33;8.17;;;1.10;;
72920;SDS011;61064;51.654;5.476;2024-03-23T08:44:59;7.97;;;0.90;;
72920;SDS011;61064;51.654;5.476;2024-03-23T08:47:24;7.77;;;0.70;;
72920;SDS011;61064;51.654;5.476;2024-03-23T08:49:50;7.43;;;0.87;;
72920;SDS011;61064;51.654;5.476;2024-03-23T08:52:15;11.65;;;1.00;;
72920;SDS011;61064;51.654;5.476;2024-03-23T08:54:41;7.83;;;1.00;;
72920;SDS011;61064;51.654;5.476;2024-03-23T08:57:09;12.95;;;1.38;;
72920;SDS011;61064;51.654;5.476;2024-03-23T08:59:35;9.18;;;1.08;;
72920;SDS011;61064;51.654;5.476;2024-03-23T09:02:02;9.13;;;1.27;;
72920;SDS011;61064;51.654;5.476;2024-03-23T09:04:28;9.47;;;1.33;;
72920;SDS011;61064;51.654;5.476;2024-03-23T09:06:53;9.77;;;1.43;;
72920;SDS011;61064;51.654;5.476;2024-03-23T09:09:18;10.50;;;1.30;;
72920;SDS011;61064;51.654;5.476;2024-03-23T09:11:45;8.45;;;1.20;;
72920;SDS011;61064;51.654;5.476;2024-03-23T09:14:10;11.23;;;1.50;;
72920;SDS011;61064;51.654;5.476;2024-03-23T09:16:36;7.77;;;0.73;;
72920;SDS011;61064;51.654;5.476;2024-03-23T09:19:01;11.10;;;1.00;;
72920;SDS011;61064;51.654;5.476;2024-03-23T09:21:27;10.95;;;1.10;;
72920;SDS011;61064;51.654;5.476;2024-03-23T09:23:52;7.37;;;0.80;;
72920;SDS011;61064;51.654;5.476;2024-03-23T09:26:17;8.83;;;0.87;;
72920;SDS011;61064;51.654;5.476;2024-03-23T09:28:43;10.97;;;1.10;;
72920;SDS011;61064;51.654;5.476;2024-03-23T09:31:08;10.45;;;0.90;;
72920;SDS011;61064;51.654;5.476;2024-03-23T09:33:39;11.23;;;1.30;;
72920;SDS011;61064;51.654;5.476;2024-03-23T09:36:05;9.27;;;1.10;;
72920;SDS011;61064;51.654;5.476;2024-03-23T09:38:31;7.68;;;1.20;;
72920;SDS011;61064;51.654;5.476;2024-03-23T09:40:56;14.43;;;1.60;;
72920;SDS011;61064;51.654;5.476;2024-03-23T09:43:22;11.00;;;1.20;;
72920;SDS011;61064;51.654;5.476;2024-03-23T09:45:48;12.67;;;1.30;;
72920;SDS011;61064;51.654;5.476;2024-03-23T09:48:17;9.23;;;1.00;;
72920;SDS011;61064;51.654;5.476;2024-03-23T09:50:43;11.33;;;1.20;;
72920;SDS011;61064;51.654;5.476;2024-03-23T09:53:10;10.48;;;1.10;;
72920;SDS011;61064;51.654;5.476;2024-03-23T09:55:37;7.07;;;0.88;;
72920;SDS011;61064;51.654;5.476;2024-03-23T09:58:03;8.18;;;0.90;;
72920;SDS011;61064;51.654;5.476;2024-03-23T10:00:33;9.68;;;1.30;;
72920;SDS011;61064;51.654;5.476;2024-03-23T10:02:59;7.70;;;1.00;;
72920;SDS011;61064;51.654;5.476;2024-03-23T10:05:27;10.02;;;1.25;;
72920;SDS011;61064;51.654;5.476;2024-03-23T10:07:54;7.88;;;0.98;;
72920;SDS011;61064;51.654;5.476;2024-03-23T10:10:19;8.47;;;1.03;;
72920;SDS011;61064;51.654;5.476;2024-03-23T10:12:47;8.25;;;1.00;;
72920;SDS011;61064;51.654;5.476;2024-03-23T10:15:22;9.23;;;1.15;;
72920;SDS011;61064;51.654;5.476;2024-03-23T10:17:49;7.93;;;1.00;;
72920;SDS011;61064;51.654;5.476;2024-03-23T10:20:24;9.77;;;1.10;;
72920;SDS011;61064;51.654;5.476;2024-03-23T10:22:49;7.95;;;0.98;;
72920;SDS011;61064;51.654;5.476;2024-03-23T10:25:23;7.60;;;0.85;;
72920;SDS011;61064;51.654;5.476;2024-03-23T10:27:58;7.05;;;1.05;;
72920;SDS011;61064;51.654;5.476;2024-03-23T10:30:25;5.93;;;0.73;;
72920;SDS011;61064;51.654;5.476;2024-03-23T10:33:07;7.85;;;0.57;;
72920;SDS011;61064;51.654;5.476;2024-03-23T10:35:36;6.22;;;0.90;;
72920;SDS011;61064;51.654;5.476;2024-03-23T10:38:05;7.00;;;0.70;;
72920;SDS011;61064;51.654;5.476;2024-03-23T10:40:34;7.72;;;0.65;;
72920;SDS011;61064;51.654;5.476;2024-03-23T10:43:00;9.07;;;1.00;;
72920;SDS011;61064;51.654;5.476;2024-03-23T10:45:27;7.70;;;0.90;;
72920;SDS011;61064;51.654;5.476;2024-03-23T10:47:53;6.93;;;0.87;;
72920;SDS011;61064;51.654;5.476;2024-03-23T10:50:18;10.48;;;0.95;;
72920;SDS011;61064;51.654;5.476;2024-03-23T10:52:45;7.10;;;0.70;;
72920;SDS011;61064;51.654;5.476;2024-03-23T10:55:13;8.35;;;0.90;;
72920;SDS011;61064;51.654;5.476;2024-03-23T11:00:13;5.45;;;0.70;;
72920;SDS011;61064;51.654;5.476;2024-03-23T11:02:39;8.37;;;0.70;;
72920;SDS011;61064;51.654;5.476;2024-03-23T11:05:28;8.38;;;0.90;;
72920;SDS011;61064;51.654;5.476;2024-03-23T11:07:52;6.30;;;0.75;;
72920;SDS011;61064;51.654;5.476;2024-03-23T11:10:28;6.20;;;0.88;;
72920;SDS011;61064;51.654;5.476;2024-03-23T11:12:58;9.35;;;1.10;;
72920;SDS011;61064;51.654;5.476;2024-03-23T11:15:43;7.67;;;0.80;;
72920;SDS011;61064;51.654;5.476;2024-03-23T11:18:08;6.30;;;0.70;;
72920;SDS011;61064;51.654;5.476;2024-03-23T11:20:34;9.27;;;1.00;;
72920;SDS011;61064;51.654;5.476;2024-03-23T11:23:00;8.95;;;0.68;;
72920;SDS011;61064;51.654;5.476;2024-03-23T11:25:27;7.43;;;0.68;;
72920;SDS011;61064;51.654;5.476;2024-03-23T11:27:54;5.20;;;0.80;;
72920;SDS011;61064;51.654;5.476;2024-03-23T11:30:22;3.05;;;0.50;;
72920;SDS011;61064;51.654;5.476;2024-03-23T11:32:48;6.60;;;0.65;;
72920;SDS011;61064;51.654;5.476;2024-03-23T11:35:28;4.18;;;0.50;;
72920;SDS011;61064;51.654;5.476;2024-03-23T11:38:01;5.38;;;0.50;;
72920;SDS011;61064;51.654;5.476;2024-03-23T11:40:50;4.30;;;0.50;;
72920;SDS011;61064;51.654;5.476;2024-03-23T11:43:19;8.82;;;0.70;;
72920;SDS011;61064;51.654;5.476;2024-03-23T11:45:56;8.10;;;0.85;;
72920;SDS011;61064;51.654;5.476;2024-03-23T11:48:22;8.93;;;1.30;;
72920;SDS011;61064;51.654;5.476;2024-03-23T11:50:49;4.80;;;0.47;;
72920;SDS011;61064;51.654;5.476;2024-03-23T11:53:20;6.35;;;0.60;;
72920;SDS011;61064;51.654;5.476;2024-03-23T11:58:22;5.63;;;0.65;;
72920;SDS011;61064;51.654;5.476;2024-03-23T12:00:55;7.50;;;0.75;;
72920;SDS011;61064;51.654;5.476;2024-03-23T12:03:22;4.00;;;0.50;;
72920;SDS011;61064;51.654;5.476;2024-03-23T12:05:53;7.38;;;0.70;;
72920;SDS011;61064;51.654;5.476;2024-03-23T12:08:19;8.43;;;1.45;;
72920;SDS011;61064;51.654;5.476;2024-03-23T12:10:47;5.80;;;0.70;;
72920;SDS011;61064;51.654;5.476;2024-03-23T12:13:17;7.57;;;0.80;;
72920;SDS011;61064;51.654;5.476;2024-03-23T12:15:47;6.53;;;0.67;;
72920;SDS011;61064;51.654;5.476;2024-03-23T12:18:14;6.57;;;1.08;;
72920;SDS011;61064;51.654;5.476;2024-03-23T12:20:40;4.15;;;0.68;;
72920;SDS011;61064;51.654;5.476;2024-03-23T12:23:06;7.83;;;1.07;;
72920;SDS011;61064;51.654;5.476;2024-03-23T12:25:33;7.15;;;0.93;;
72920;SDS011;61064;51.654;5.476;2024-03-23T12:28:00;6.78;;;0.60;;
72920;SDS011;61064;51.654;5.476;2024-03-23T12:30:25;7.93;;;0.73;;
72920;SDS011;61064;51.654;5.476;2024-03-23T12:32:51;6.87;;;0.53;;
72920;SDS011;61064;51.654;5.476;2024-03-23T12:35:16;4.70;;;0.50;;
72920;SDS011;61064;51.654;5.476;2024-03-23T12:37:41;6.33;;;0.50;;
72920;SDS011;61064;51.654;5.476;2024-03-23T12:40:08;9.18;;;0.55;;
72920;SDS011;61064;51.654;5.476;2024-03-23T12:42:34;8.53;;;0.70;;
72920;SDS011;61064;51.654;5.476;2024-03-23T12:44:59;6.40;;;0.50;;
72920;SDS011;61064;51.654;5.476;2024-03-23T12:47:24;4.93;;;0.70;;
72920;SDS011;61064;51.654;5.476;2024-03-23T12:49:50;7.80;;;0.88;;
72920;SDS011;61064;51.654;5.476;2024-03-23T12:52:17;8.57;;;0.80;;
72920;SDS011;61064;51.654;5.476;2024-03-23T12:54:42;5.95;;;0.70;;
72920;SDS011;61064;51.654;5.476;2024-03-23T12:57:08;6.23;;;0.70;;
72920;SDS011;61064;51.654;5.476;2024-03-23T12:59:33;10.67;;;0.87;;
72920;SDS011;61064;51.654;5.476;2024-03-23T13:02:00;9.23;;;1.08;;
72920;SDS011;61064;51.654;5.476;2024-03-23T13:04:26;8.10;;;0.70;;
72920;SDS011;61064;51.654;5.476;2024-03-23T13:06:51;5.47;;;0.60;;
72920;SDS011;61064;51.654;5.476;2024-03-23T13:09:16;10.35;;;0.98;;
72920;SDS011;61064;51.654;5.476;2024-03-23T13:11:42;10.53;;;0.70;;
72920;SDS011;61064;51.654;5.476;2024-03-23T13:14:07;7.70;;;0.87;;
72920;SDS011;61064;51.654;5.476;2024-03-23T13:16:33;5.07;;;0.53;;
72920;SDS011;61064;51.654;5.476;2024-03-23T13:18:58;8.65;;;1.00;;
72920;SDS011;61064;51.654;5.476;2024-03-23T13:21:24;7.07;;;0.73;;
72920;SDS011;61064;51.654;5.476;2024-03-23T13:23:49;7.97;;;1.13;;
72920;SDS011;61064;51.654;5.476;2024-03-23T13:26:16;6.93;;;0.60;;
72920;SDS011;61064;51.654;5.476;2024-03-23T13:28:41;8.97;;;0.90;;
72920;SDS011;61064;51.654;5.476;2024-03-23T13:31:07;7.28;;;0.88;;
72920;SDS011;61064;51.654;5.476;2024-03-23T13:33:36;8.20;;;0.70;;
72920;SDS011;61064;51.654;5.476;2024-03-23T13:36:01;6.93;;;1.20;;
72920;SDS011;61064;51.654;5.476;2024-03-23T13:38:28;9.05;;;0.90;;
72920;SDS011;61064;51.654;5.476;2024-03-23T13:40:57;9.77;;;1.00;;
72920;SDS011;61064;51.654;5.476;2024-03-23T13:43:24;7.07;;;0.75;;
72920;SDS011;61064;51.654;5.476;2024-03-23T13:45:54;5.82;;;0.60;;
72920;SDS011;61064;51.654;5.476;2024-03-23T13:48:21;6.07;;;0.85;;
72920;SDS011;61064;51.654;5.476;2024-03-23T13:51:00;7.13;;;0.63;;
72920;SDS011;61064;51.654;5.476;2024-03-23T13:53:29;8.77;;;1.37;;
72920;SDS011;61064;51.654;5.476;2024-03-23T13:55:55;6.68;;;1.33;;
72920;SDS011;61064;51.654;5.476;2024-03-23T13:58:21;6.63;;;0.93;;
72920;SDS011;61064;51.654;5.476;2024-03-23T14:00:48;11.93;;;0.90;;
72920;SDS011;61064;51.654;5.476;2024-03-23T14:03:14;8.60;;;0.93;;
72920;SDS011;61064;51.654;5.476;2024-03-23T14:05:39;7.85;;;0.88;;
72920;SDS011;61064;51.654;5.476;2024-03-23T14:08:06;6.97;;;0.90;;
72920;SDS011;61064;51.654;5.476;2024-03-23T14:10:32;6.15;;;0.70;;
72920;SDS011;61064;51.654;5.476;2024-03-23T14:12:57;8.93;;;0.80;;
72920;SDS011;61064;51.654;5.476;2024-03-23T14:15:24;10.23;;;1.10;;
72920;SDS011;61064;51.654;5.476;2024-03-23T14:17:51;8.88;;;0.85;;
72920;SDS011;61064;51.654;5.476;2024-03-23T14:20:16;7.07;;;0.80;;
72920;SDS011;61064;51.654;5.476;2024-03-23T14:22:41;6.72;;;0.93;;
72920;SDS011;61064;51.654;5.476;2024-03-23T14:25:08;7.93;;;0.60;;
72920;SDS011;61064;51.654;5.476;2024-03-23T14:27:34;8.95;;;0.90;;
72920;SDS011;61064;51.654;5.476;2024-03-23T14:30:02;6.43;;;0.90;;
72920;SDS011;61064;51.654;5.476;2024-03-23T14:32:29;7.53;;;0.90;;
72920;SDS011;61064;51.654;5.476;2024-03-23T14:34:58;9.65;;;0.88;;
72920;SDS011;61064;51.654;5.476;2024-03-23T14:37:25;10.63;;;1.20;;
72920;SDS011;61064;51.654;5.476;2024-03-23T14:39:50;5.03;;;0.67;;
72920;SDS011;61064;51.654;5.476;2024-03-23T14:42:15;8.83;;;1.10;;
72920;SDS011;61064;51.654;5.476;2024-03-23T14:44:41;8.80;;;0.80;;
72920;SDS011;61064;51.654;5.476;2024-03-23T14:47:07;7.68;;;0.82;;
72920;SDS011;61064;51.654;5.476;2024-03-23T14:49:32;7.07;;;0.77;;
72920;SDS011;61064;51.654;5.476;2024-03-23T14:51:58;11.57;;;1.00;;
72920;SDS011;61064;51.654;5.476;2024-03-23T14:54:23;7.33;;;1.00;;
72920;SDS011;61064;51.654;5.476;2024-03-23T14:56:49;8.53;;;0.60;;
72920;SDS011;61064;51.654;5.476;2024-03-23T14:59:14;6.97;;;0.55;;
72920;SDS011;61064;51.654;5.476;2024-03-23T15:01:40;4.30;;;0.40;;
72920;SDS011;61064;51.654;5.476;2024-03-23T15:04:06;3.50;;;0.60;;
72920;SDS011;61064;51.654;5.476;2024-03-23T15:06:32;3.53;;;0.30;;
72920;SDS011;61064;51.654;5.476;2024-03-23T15:08:58;3.25;;;0.30;;
72920;SDS011;61064;51.654;5.476;2024-03-23T15:11:24;3.30;;;0.50;;
72920;SDS011;61064;51.654;5.476;2024-03-23T15:13:49;4.40;;;0.40;;
72920;SDS011;61064;51.654;5.476;2024-03-23T15:16:18;6.25;;;0.95;;
72920;SDS011;61064;51.654;5.476;2024-03-23T15:18:45;4.20;;;0.40;;
72920;SDS011;61064;51.654;5.476;2024-03-23T15:21:11;5.78;;;0.68;;
72920;SDS011;61064;51.654;5.476;2024-03-23T15:23:37;4.20;;;0.43;;
72920;SDS011;61064;51.654;5.476;2024-03-23T15:26:06;5.93;;;0.50;;
72920;SDS011;61064;51.654;5.476;2024-03-23T15:28:31;5.40;;;0.60;;
72920;SDS011;61064;51.654;5.476;2024-03-23T15:31:05;4.70;;;0.50;;
72920;SDS011;61064;51.654;5.476;2024-03-23T15:33:31;4.80;;;0.60;;
72920;SDS011;61064;51.654;5.476;2024-03-23T15:36:00;6.65;;;0.60;;
72920;SDS011;61064;51.654;5.476;2024-03-23T15:38:26;6.30;;;0.53;;